createdAt,value
2022-08-28T00:01:51.198Z,10.40
2022-08-28T00:04:24.025Z,11.23
2022-08-28T00:06:57.089Z,10.57
2022-08-28T00:09:30.371Z,10.60
2022-08-28T00:12:03.801Z,10.83
2022-08-28T00:14:38.261Z,11.37
2022-08-28T00:17:13.370Z,10.77
2022-08-28T00:19:47.088Z,11.37
2022-08-28T00:22:20.552Z,11.77
2022-08-28T00:24:55.077Z,11.13
2022-08-28T00:27:45.571Z,10.93
2022-08-28T00:30:18.706Z,11.77
2022-08-28T00:32:54.978Z,11.80
2022-08-28T00:35:28.594Z,11.73
2022-08-28T00:38:02.291Z,12.13
2022-08-28T00:40:36.685Z,11.97
2022-08-28T00:43:10.966Z,12.00
2022-08-28T00:45:44.517Z,12.50
2022-08-28T00:48:20.853Z,11.87
2022-08-28T00:51:10.630Z,11.90
2022-08-28T00:53:44.303Z,11.80
2022-08-28T00:56:20.730Z,12.97
2022-08-28T00:58:58.237Z,12.20
2022-08-28T01:01:32.043Z,12.93
2022-08-28T01:04:08.169Z,12.87
2022-08-28T01:06:52.527Z,13.13
2022-08-28T01:09:30.227Z,13.80
2022-08-28T01:12:09.378Z,13.73
2022-08-28T01:14:47.207Z,14.23
2022-08-28T01:17:21.404Z,15.00
2022-08-28T01:19:59.622Z,14.80
2022-08-28T01:22:41.103Z,14.93
2022-08-28T01:25:20.419Z,14.13
2022-08-28T01:27:54.637Z,15.10
2022-08-28T01:30:30.254Z,15.63
2022-08-28T01:33:03.920Z,15.33
2022-08-28T01:35:41.566Z,16.23
2022-08-28T01:38:20.233Z,16.80
2022-08-28T01:41:02.605Z,17.20
2022-08-28T01:43:36.073Z,17.47
2022-08-28T01:46:11.791Z,16.63
2022-08-28T01:48:47.611Z,16.50
2022-08-28T01:51:24.485Z,16.27
2022-08-28T01:53:58.672Z,16.50
2022-08-28T01:56:33.705Z,16.47
2022-08-28T01:59:09.520Z,15.90
2022-08-28T02:01:44.181Z,18.17
2022-08-28T02:04:17.896Z,15.93
2022-08-28T02:06:50.993Z,16.17
2022-08-28T02:09:24.179Z,16.87
2022-08-28T02:11:59.504Z,16.67
2022-08-28T02:14:35.046Z,16.60
2022-08-28T02:17:08.790Z,15.93
2022-08-28T02:19:42.012Z,16.90
2022-08-28T02:22:15.270Z,17.03
2022-08-28T02:24:48.832Z,17.80
2022-08-28T02:27:24.513Z,16.87
2022-08-28T02:29:59.284Z,16.97
2022-08-28T02:32:32.742Z,18.03
2022-08-28T02:35:11.990Z,18.13
2022-08-28T02:37:47.676Z,16.93
2022-08-28T02:40:23.450Z,17.37
2022-08-28T02:42:59.524Z,17.03
2022-08-28T02:45:33.380Z,17.73
2022-08-28T02:48:16.661Z,17.00
2022-08-28T02:51:06.197Z,16.27
2022-08-28T02:53:44.123Z,17.27
2022-08-28T02:56:18.262Z,17.27
2022-08-28T02:58:54.386Z,17.73
2022-08-28T03:01:30.623Z,17.10
2022-08-28T03:04:04.831Z,18.27
2022-08-28T03:06:39.396Z,17.83
2022-08-28T03:09:12.250Z,17.10
2022-08-28T03:11:46.358Z,18.63
2022-08-28T03:14:21.907Z,18.03
2022-08-28T03:16:56.211Z,18.00
2022-08-28T03:19:30.100Z,18.70
2022-08-28T03:22:03.109Z,17.70
2022-08-28T03:24:34.995Z,16.30
2022-08-28T03:27:08.493Z,17.13
2022-08-28T03:29:44.300Z,18.23
2022-08-28T03:32:17.188Z,16.87
2022-08-28T03:34:51.057Z,17.20
2022-08-28T03:37:24.872Z,17.10
2022-08-28T03:39:58.231Z,17.33
2022-08-28T03:42:33.472Z,17.43
2022-08-28T03:45:09.691Z,17.37
2022-08-28T03:47:43.675Z,17.70
2022-08-28T03:50:17.945Z,18.03
2022-08-28T03:52:53.778Z,18.27
2022-08-28T03:55:27.371Z,16.80
2022-08-28T03:58:00.969Z,18.10
2022-08-28T04:00:35.800Z,17.23
2022-08-28T04:03:09.160Z,16.87
2022-08-28T04:05:43.330Z,17.17
2022-08-28T04:08:26.312Z,16.57
2022-08-28T04:11:00.599Z,17.10
2022-08-28T04:13:35.248Z,16.50
2022-08-28T04:16:14.017Z,16.03
2022-08-28T04:18:48.304Z,15.77
2022-08-28T04:21:24.648Z,16.23
2022-08-28T04:23:58.416Z,15.50
2022-08-28T04:26:37.838Z,15.50
2022-08-28T04:29:13.750Z,16.73
2022-08-28T04:31:49.195Z,16.70
2022-08-28T04:34:29.234Z,16.57
2022-08-28T04:37:06.920Z,16.13
2022-08-28T04:39:40.790Z,16.70
2022-08-28T04:42:14.403Z,17.40
2022-08-28T04:44:48.949Z,15.73
2022-08-28T04:47:25.178Z,16.07
2022-08-28T04:50:01.357Z,16.60
2022-08-28T04:52:41.692Z,16.57
2022-08-28T04:55:16.019Z,16.50
2022-08-28T04:57:58.854Z,16.70
2022-08-28T05:00:33.053Z,16.27
2022-08-28T05:03:09.110Z,16.83
2022-08-28T05:05:49.506Z,16.60
2022-08-28T05:08:29.308Z,16.13
2022-08-28T05:11:13.095Z,16.93
2022-08-28T05:13:47.411Z,18.23
2022-08-28T05:16:21.642Z,15.93
2022-08-28T05:21:44.247Z,16.50
2022-08-28T05:24:19.413Z,15.80
2022-08-28T05:26:58.877Z,15.53
2022-08-28T05:29:33.242Z,17.03
2022-08-28T05:32:07.352Z,15.93
2022-08-28T05:34:43.019Z,15.17
2022-08-28T05:37:19.670Z,15.67
2022-08-28T05:40:02.153Z,15.10
2022-08-28T05:42:40.348Z,14.53
2022-08-28T05:45:16.584Z,14.47
2022-08-28T05:47:51.380Z,14.20
2022-08-28T05:50:27.623Z,14.77
2022-08-28T05:53:02.463Z,14.43
2022-08-28T05:55:37.391Z,14.70
2022-08-28T05:58:24.046Z,14.30
2022-08-28T06:00:59.682Z,13.83
2022-08-28T06:03:34.639Z,14.43
2022-08-28T06:06:10.890Z,14.20
2022-08-28T06:08:58.748Z,13.10
2022-08-28T06:11:34.156Z,13.43
2022-08-28T06:14:12.377Z,13.80
2022-08-28T06:16:52.198Z,12.73
2022-08-28T06:19:27.991Z,13.50
2022-08-28T06:22:07.733Z,13.03
2022-08-28T06:24:44.364Z,13.20
2022-08-28T06:27:19.110Z,13.07
2022-08-28T06:29:53.211Z,13.03
2022-08-28T06:32:27.416Z,13.30
2022-08-28T06:35:03.538Z,13.27
2022-08-28T06:37:40.701Z,12.77
2022-08-28T06:40:15.252Z,12.77
2022-08-28T06:42:49.062Z,13.27
2022-08-28T06:45:23.381Z,13.03
2022-08-28T06:47:57.796Z,12.60
2022-08-28T06:50:31.509Z,13.43
2022-08-28T06:53:09.852Z,13.20
2022-08-28T06:55:45.306Z,12.40
2022-08-28T06:58:31.995Z,12.37
2022-08-28T07:01:13.966Z,12.00
2022-08-28T07:03:48.942Z,12.87
2022-08-28T07:06:24.591Z,12.50
2022-08-28T07:09:01.585Z,13.00
2022-08-28T07:11:37.005Z,12.70
2022-08-28T07:14:11.818Z,13.03
2022-08-28T07:16:46.897Z,11.93
2022-08-28T07:19:21.211Z,13.07
2022-08-28T07:21:55.633Z,12.50
2022-08-28T07:24:33.710Z,12.70
2022-08-28T07:27:08.323Z,11.53
2022-08-28T07:29:43.135Z,10.97
2022-08-28T07:32:18.891Z,11.07
2022-08-28T07:34:53.966Z,8.63
2022-08-28T07:37:27.920Z,7.53
2022-08-28T07:40:04.468Z,7.00
2022-08-28T07:42:55.317Z,6.80
2022-08-28T07:45:30.334Z,5.90
2022-08-28T07:48:07.533Z,4.70
2022-08-28T07:50:45.157Z,5.00
2022-08-28T07:53:19.758Z,4.30
2022-08-28T07:55:57.023Z,3.57
2022-08-28T07:58:31.645Z,3.60
2022-08-28T08:01:06.118Z,3.10
2022-08-28T08:03:40.277Z,3.03
2022-08-28T08:06:14.868Z,3.40
2022-08-28T08:08:48.954Z,3.00
2022-08-28T08:11:24.209Z,2.77
2022-08-28T08:13:59.820Z,3.00
2022-08-28T08:16:35.227Z,3.10
2022-08-28T08:19:15.312Z,3.03
2022-08-28T08:21:53.402Z,2.70
2022-08-28T08:24:31.497Z,2.60
2022-08-28T08:27:08.174Z,2.70
2022-08-28T08:29:42.494Z,2.80
2022-08-28T08:32:16.921Z,2.57
2022-08-28T08:34:51.085Z,2.70
2022-08-28T08:37:26.739Z,2.90
2022-08-28T08:40:00.968Z,2.70
2022-08-28T08:42:39.769Z,2.80
2022-08-28T08:45:19.470Z,2.83
2022-08-28T08:47:55.707Z,3.00
2022-08-28T08:50:31.791Z,3.00
2022-08-28T08:53:28.566Z,3.03
2022-08-28T08:56:07.026Z,3.57
2022-08-28T08:58:44.335Z,3.30
2022-08-28T09:01:24.268Z,3.57
2022-08-28T09:04:04.311Z,3.60
2022-08-28T09:06:44.970Z,3.50
2022-08-28T09:09:30.418Z,3.30
2022-08-28T09:12:06.852Z,3.40
2022-08-28T09:14:53.744Z,3.10
2022-08-28T09:17:31.691Z,3.03
2022-08-28T09:20:07.040Z,2.90
2022-08-28T09:22:41.651Z,3.20
2022-08-28T09:25:37.731Z,2.90
2022-08-28T09:28:13.112Z,2.40
2022-08-28T09:31:00.657Z,2.70
2022-08-28T09:33:41.793Z,2.20
2022-08-28T09:36:32.620Z,2.70
2022-08-28T09:39:17.825Z,2.30
2022-08-28T09:42:15.679Z,2.20
2022-08-28T09:44:55.485Z,2.13
2022-08-28T09:47:49.934Z,2.20
2022-08-28T09:50:36.303Z,2.30
2022-08-28T09:53:23.373Z,1.90
2022-08-28T09:56:03.421Z,1.93
2022-08-28T09:58:40.314Z,1.57
2022-08-28T10:01:33.323Z,1.87
2022-08-28T10:04:31.072Z,2.03
2022-08-28T10:07:11.837Z,1.87
2022-08-28T10:09:53.745Z,1.73
2022-08-28T10:12:46.622Z,1.63
2022-08-28T10:15:26.621Z,1.63
2022-08-28T10:18:16.197Z,1.97
2022-08-28T10:21:00.156Z,1.80
2022-08-28T10:23:43.628Z,2.00
2022-08-28T10:26:38.173Z,2.00
2022-08-28T10:29:49.401Z,1.73
2022-08-28T10:32:56.812Z,2.00
2022-08-28T10:35:39.220Z,1.87
2022-08-28T10:38:18.221Z,1.70
2022-08-28T10:41:00.162Z,2.03
2022-08-28T10:43:46.030Z,1.67
2022-08-28T10:46:27.360Z,2.10
2022-08-28T10:49:05.407Z,1.77
2022-08-28T10:51:45.810Z,2.00
2022-08-28T10:54:27.698Z,2.43
2022-08-28T10:57:06.567Z,1.90
2022-08-28T10:59:42.125Z,1.77
2022-08-28T11:02:17.598Z,2.10
2022-08-28T11:04:55.348Z,1.50
2022-08-28T11:07:36.742Z,1.33
2022-08-28T11:10:28.264Z,1.90
2022-08-28T11:13:02.772Z,1.60
2022-08-28T11:15:56.741Z,1.80
2022-08-28T11:19:03.330Z,1.40
2022-08-28T11:21:45.872Z,1.70
2022-08-28T11:24:38.077Z,2.00
2022-08-28T11:27:25.788Z,1.70
2022-08-28T11:30:37.754Z,1.80
2022-08-28T11:33:33.888Z,2.00
2022-08-28T11:36:08.307Z,2.10
2022-08-28T11:39:16.140Z,1.90
2022-08-28T11:42:34.857Z,1.90
2022-08-28T11:45:10.630Z,2.00
2022-08-28T11:47:58.065Z,2.00
2022-08-28T11:50:37.226Z,2.00
2022-08-28T11:53:38.820Z,2.07
2022-08-28T11:56:39.803Z,2.00
2022-08-28T11:59:38.580Z,2.60
2022-08-28T12:02:55.445Z,2.10
2022-08-28T12:05:52.747Z,1.80
2022-08-28T12:09:15.848Z,2.07
2022-08-28T12:12:01.692Z,1.90
2022-08-28T12:15:13.327Z,2.10
2022-08-28T12:17:54.274Z,1.87
2022-08-28T12:20:48.501Z,1.90
2022-08-28T12:23:47.451Z,1.80
2022-08-28T12:26:29.097Z,1.97
2022-08-28T12:29:03.908Z,1.90
2022-08-28T12:32:15.544Z,1.73
2022-08-28T12:34:59.197Z,2.07
2022-08-28T12:37:52.551Z,1.70
2022-08-28T12:40:54.770Z,2.03
2022-08-28T12:43:40.873Z,2.00
2022-08-28T12:46:24.859Z,2.13
2022-08-28T12:49:01.703Z,2.07
2022-08-28T12:51:38.011Z,2.30
2022-08-28T12:54:14.684Z,2.33
2022-08-28T12:56:50.468Z,2.20
2022-08-28T12:59:38.643Z,2.10
2022-08-28T13:02:23.243Z,2.47
2022-08-28T13:05:01.398Z,2.40
2022-08-28T13:07:39.483Z,2.73
2022-08-28T13:10:26.155Z,2.47
2022-08-28T13:13:05.930Z,2.40
2022-08-28T13:15:58.416Z,2.40
2022-08-28T13:18:46.461Z,2.40
2022-08-28T13:22:00.219Z,2.40
2022-08-28T13:24:49.313Z,2.53
2022-08-28T13:27:27.815Z,2.53
2022-08-28T13:30:08.493Z,2.90
2022-08-28T13:32:44.168Z,2.70
2022-08-28T13:35:38.387Z,2.83
2022-08-28T13:38:14.432Z,2.90
2022-08-28T13:41:00.093Z,2.90
2022-08-28T13:43:45.474Z,2.97
2022-08-28T13:46:22.634Z,2.80
2022-08-28T13:48:57.533Z,3.13
2022-08-28T13:51:31.776Z,3.20
2022-08-28T13:54:08.350Z,2.77
2022-08-28T13:56:43.176Z,2.93
2022-08-28T14:02:24.716Z,2.50
2022-08-28T14:05:01.231Z,2.30
2022-08-28T14:07:35.651Z,2.10
2022-08-28T14:10:09.918Z,2.30
2022-08-28T14:12:44.755Z,2.33
2022-08-28T14:15:20.483Z,2.30
2022-08-28T14:17:57.915Z,2.80
2022-08-28T14:20:31.972Z,2.60
2022-08-28T14:23:06.263Z,2.50
2022-08-28T14:25:47.991Z,2.50
2022-08-28T14:28:24.079Z,2.33
2022-08-28T14:30:58.800Z,2.30
2022-08-28T14:33:36.960Z,2.13
2022-08-28T14:36:22.657Z,2.50
2022-08-28T14:38:57.713Z,2.30
2022-08-28T14:41:32.851Z,2.10
2022-08-28T14:44:08.040Z,2.00
2022-08-28T14:46:43.680Z,1.93
2022-08-28T14:49:24.415Z,2.17
2022-08-28T14:52:00.249Z,1.90
2022-08-28T14:54:35.921Z,2.00
2022-08-28T14:57:13.869Z,1.90
2022-08-28T14:59:48.457Z,1.90
2022-08-28T15:02:23.228Z,1.90
2022-08-28T15:05:00.220Z,1.70
2022-08-28T15:07:54.412Z,1.60
2022-08-28T15:10:29.618Z,1.50
2022-08-28T15:13:17.534Z,1.70
2022-08-28T15:15:52.542Z,1.50
2022-08-28T15:18:28.021Z,1.60
2022-08-28T15:21:05.116Z,1.60
2022-08-28T15:23:39.609Z,1.77
2022-08-28T15:26:17.728Z,1.83
2022-08-28T15:28:52.543Z,1.80
2022-08-28T15:31:26.848Z,1.57
2022-08-28T15:34:02.104Z,2.00
2022-08-28T15:36:38.698Z,1.80
2022-08-28T15:39:29.543Z,1.90
2022-08-28T15:42:04.904Z,2.00
2022-08-28T15:44:39.995Z,2.10
2022-08-28T15:47:16.688Z,1.90
2022-08-28T15:49:57.166Z,2.33
2022-08-28T15:52:36.006Z,2.30
2022-08-28T15:55:11.522Z,1.90
2022-08-28T15:57:45.530Z,2.00
2022-08-28T16:00:21.392Z,2.20
2022-08-28T16:03:01.262Z,2.20
2022-08-28T16:05:41.017Z,2.00
2022-08-28T16:08:18.605Z,2.13
2022-08-28T16:10:54.578Z,2.20
2022-08-28T16:13:32.701Z,2.07
2022-08-28T16:16:08.000Z,2.00
2022-08-28T16:18:42.463Z,2.23
2022-08-28T16:21:16.842Z,2.10
2022-08-28T16:23:53.622Z,1.80
2022-08-28T16:26:28.323Z,1.87
2022-08-28T16:29:04.830Z,1.80
2022-08-28T16:31:39.151Z,2.00
2022-08-28T16:34:14.399Z,1.97
2022-08-28T16:36:49.769Z,1.80
2022-08-28T16:39:25.899Z,1.60
2022-08-28T16:42:00.075Z,1.97
2022-08-28T16:44:34.388Z,1.70
2022-08-28T16:47:08.760Z,1.80
2022-08-28T16:49:42.715Z,2.03
2022-08-28T16:52:17.462Z,1.67
2022-08-28T16:54:54.211Z,1.60
2022-08-28T16:57:28.150Z,1.70
2022-08-28T17:00:04.121Z,1.43
2022-08-28T17:02:38.327Z,1.53
2022-08-28T17:05:13.082Z,1.60
2022-08-28T17:07:47.769Z,1.40
2022-08-28T17:10:25.839Z,1.50
2022-08-28T17:13:00.626Z,1.70
2022-08-28T17:15:34.177Z,1.60
2022-08-28T17:18:07.954Z,1.50
2022-08-28T17:21:11.726Z,1.60
2022-08-28T17:23:45.968Z,1.70
2022-08-28T17:26:21.473Z,1.67
2022-08-28T17:28:58.656Z,1.57
2022-08-28T17:31:32.731Z,1.83
2022-08-28T17:34:06.950Z,1.93
2022-08-28T17:36:42.162Z,1.87
2022-08-28T17:39:20.904Z,2.10
2022-08-28T17:41:56.361Z,1.97
2022-08-28T17:44:29.888Z,2.13
2022-08-28T17:47:05.039Z,2.40
2022-08-28T17:49:39.375Z,2.47
2022-08-28T17:52:13.017Z,2.37
2022-08-28T17:54:47.327Z,2.33
2022-08-28T17:57:23.219Z,2.30
2022-08-28T17:59:57.753Z,2.20
2022-08-28T18:02:32.361Z,2.20
2022-08-28T18:05:06.295Z,2.27
2022-08-28T18:07:39.931Z,2.60
2022-08-28T18:10:14.190Z,2.30
2022-08-28T18:12:49.950Z,2.90
2022-08-28T18:15:23.681Z,3.07
2022-08-28T18:17:57.155Z,2.30
2022-08-28T18:20:30.127Z,2.77
2022-08-28T18:25:52.636Z,2.80
2022-08-28T18:28:29.705Z,2.50
2022-08-28T18:31:03.989Z,2.63
2022-08-28T18:33:38.281Z,2.80
2022-08-28T18:36:13.027Z,2.37
2022-08-28T18:38:48.224Z,2.80
2022-08-28T18:41:41.564Z,2.10
2022-08-28T18:44:21.204Z,2.20
2022-08-28T18:46:57.178Z,2.20
2022-08-28T18:49:31.587Z,2.40
2022-08-28T18:52:05.322Z,1.90
2022-08-28T18:54:39.068Z,2.20
2022-08-28T18:57:14.628Z,1.90
2022-08-28T18:59:50.221Z,2.20
2022-08-28T19:02:23.820Z,1.87
2022-08-28T19:04:57.719Z,2.03
2022-08-28T19:07:31.572Z,1.83
2022-08-28T19:10:22.681Z,2.07
2022-08-28T19:13:02.548Z,1.90
2022-08-28T19:15:38.665Z,1.97
2022-08-28T19:18:13.073Z,1.70
2022-08-28T19:20:46.354Z,1.90
2022-08-28T19:23:20.099Z,2.03
2022-08-28T19:25:53.806Z,2.17
2022-08-28T19:28:27.276Z,2.13
2022-08-28T19:31:02.253Z,2.47
2022-08-28T19:33:38.137Z,2.20
2022-08-28T19:36:12.684Z,2.30
2022-08-28T19:38:46.337Z,2.10
2022-08-28T19:41:19.719Z,2.77
2022-08-28T19:43:53.609Z,2.33
2022-08-28T19:46:29.063Z,2.20
2022-08-28T19:49:04.330Z,2.50
2022-08-28T19:51:39.287Z,2.60
2022-08-28T19:54:17.316Z,2.60
2022-08-28T19:56:50.848Z,2.67
2022-08-28T19:59:27.133Z,2.90
2022-08-28T20:02:02.660Z,2.80
2022-08-28T20:04:37.526Z,3.03
2022-08-28T20:07:11.264Z,3.53
2022-08-28T20:09:45.301Z,2.90
2022-08-28T20:12:18.757Z,2.97
2022-08-28T20:14:52.923Z,2.90
2022-08-28T20:17:28.813Z,3.10
2022-08-28T20:20:03.528Z,3.00
2022-08-28T20:22:37.053Z,2.40
2022-08-28T20:25:12.774Z,2.80
2022-08-28T20:27:49.750Z,3.00
2022-08-28T20:30:24.122Z,2.97
2022-08-28T20:33:00.509Z,2.97
2022-08-28T20:35:34.525Z,2.80
2022-08-28T20:38:07.524Z,3.07
2022-08-28T20:40:41.358Z,3.10
2022-08-28T20:43:15.087Z,3.20
2022-08-28T20:45:48.716Z,3.10
2022-08-28T20:48:27.979Z,3.10
2022-08-28T20:51:02.154Z,3.20
2022-08-28T20:53:37.881Z,3.13
2022-08-28T20:56:14.306Z,3.57
2022-08-28T20:58:47.915Z,3.03
2022-08-28T21:01:21.768Z,3.07
2022-08-28T21:03:57.246Z,3.17
2022-08-28T21:06:32.554Z,2.97
2022-08-28T21:09:06.615Z,3.70
2022-08-28T21:11:40.714Z,3.17
2022-08-28T21:14:14.760Z,3.00
2022-08-28T21:16:49.632Z,3.17
2022-08-28T21:19:25.544Z,3.30
2022-08-28T21:21:59.533Z,2.30
2022-08-28T21:24:33.498Z,2.43
2022-08-28T21:27:09.584Z,2.80
2022-08-28T21:29:43.611Z,2.70
2022-08-28T21:32:18.527Z,2.87
2022-08-28T21:34:54.573Z,2.80
2022-08-28T21:37:28.532Z,2.43
2022-08-28T21:40:24.357Z,2.80
2022-08-28T21:42:58.343Z,3.00
2022-08-28T21:45:32.312Z,2.90
2022-08-28T21:48:06.471Z,2.83
2022-08-28T21:50:46.285Z,3.30
2022-08-28T21:53:21.124Z,2.67
2022-08-28T21:55:56.608Z,2.40
2022-08-28T21:58:30.568Z,3.40
2022-08-28T22:01:05.074Z,3.50
2022-08-28T22:03:39.103Z,3.60
2022-08-28T22:06:18.167Z,3.37
2022-08-28T22:08:52.863Z,3.50
2022-08-28T22:11:28.227Z,3.20
2022-08-28T22:16:55.192Z,3.30
2022-08-28T22:19:29.069Z,3.50
2022-08-28T22:22:20.992Z,3.90
2022-08-28T22:24:55.051Z,4.03
2022-08-28T22:27:28.657Z,3.43
2022-08-28T22:30:02.499Z,3.87
2022-08-28T22:32:36.290Z,3.57
2022-08-28T22:35:12.055Z,4.17
2022-08-28T22:37:47.443Z,4.20
2022-08-28T22:40:21.703Z,2.77
2022-08-28T22:42:55.628Z,3.60
2022-08-28T22:45:29.788Z,3.50
2022-08-28T22:48:21.161Z,3.30
2022-08-28T22:50:54.590Z,3.30
2022-08-28T22:53:30.745Z,3.50
2022-08-28T22:56:04.125Z,3.30
2022-08-28T22:58:38.176Z,3.27
2022-08-28T23:01:15.506Z,2.60
2022-08-28T23:03:53.351Z,2.83
2022-08-28T23:06:26.775Z,2.00
2022-08-28T23:09:02.022Z,2.33
2022-08-28T23:11:35.233Z,2.37
2022-08-28T23:14:11.698Z,2.70
2022-08-28T23:16:46.484Z,2.70
2022-08-28T23:19:20.358Z,2.93
2022-08-28T23:21:56.230Z,2.80
2022-08-28T23:24:31.214Z,2.90
2022-08-28T23:27:25.505Z,2.20
2022-08-28T23:29:58.522Z,2.40
2022-08-28T23:32:34.081Z,3.10
2022-08-28T23:35:08.184Z,2.40
2022-08-28T23:40:46.719Z,2.60
2022-08-28T23:43:20.164Z,2.20
2022-08-28T23:45:55.310Z,2.70
2022-08-28T23:48:29.184Z,2.40
2022-08-28T23:51:02.891Z,2.67
2022-08-28T23:53:36.735Z,2.97
2022-08-28T23:56:12.881Z,2.20
2022-08-28T23:58:46.863Z,2.60
